Atmospheric History
02/08/2018 18:10  to  2/9/2018 18:10
Change End Date:
To complete the export process:
1) Select all of the data below
2) Copy the data to the clipboard
3) Open a word processor such as Notepad
4) Paste the data into the word processor
5) Save the file

Date/Time (MDT), AirTemp, RH, Dewpoint ,AvgWindSpeed, GustWindSpeed, WindDirection, PrecipType, PrecipIntensity, PrecipAccumulation, PrecipRate
02/09/2018 18:09, -5, 61, -15 ,6, 9, S, None, None, ,  
02/09/2018 18:07, -4, 60, -14 ,7, 9, S, None, None, ,  
02/09/2018 17:57, -4, 60, -14 ,7, 9, S, None, None, ,  
02/09/2018 17:54, -2, 61, -13 ,7, 9, S, None, None, ,  
02/09/2018 17:47, -2, 64, -12 ,7, 9, S, None, None, ,  
02/09/2018 17:39, -2, 62, -12 ,7, 8, S, None, None, ,  
02/09/2018 17:37, -2, 64, -11 ,7, 8, S, None, None, ,  
02/09/2018 17:27, -6, 66, -15 ,4, 6, N, None, None, ,  
02/09/2018 17:25, -5, 67, -13 ,4, 6, N, None, None, ,  
02/09/2018 17:17, -3, 65, -12 ,2, 3, N, None, None, ,  
02/09/2018 17:10, -3, 65, -12 ,2, 4, N, None, None, ,  
02/09/2018 17:07, -3, 65, -12 ,3, 4, N, None, None, ,  
02/09/2018 16:57, -1, 66, -10 ,2, 3, N, None, None, ,  
02/09/2018 16:55, -2, 68, -10 ,2, 3, N, None, None, ,  
02/09/2018 16:47, -3, 65, -12 ,0, 1, N, None, None, ,  
02/09/2018 16:40, -2, 64, -11 ,0, 0, N, None, None, ,  
02/09/2018 16:37, -2, 61, -12 ,0, 0, N, None, None, ,  
02/09/2018 16:27, 0, 64, -9 ,0, 0, N, None, None, ,  
02/09/2018 16:26, 0, 65, -9 ,0, 0, N, None, None, ,  
02/09/2018 16:17, 1, 63, -8 ,0, 1, N, None, None, ,  
02/09/2018 16:10, 3, 61, -8 ,0, 1, N, None, None, ,  
02/09/2018 16:07, 2, 63, -7 ,0, 1, N, None, None, ,  
02/09/2018 15:57, 3, 64, -7 ,1, 1, N, None, None, ,  
02/09/2018 15:55, 2, 65, -7 ,1, 2, N, None, None, ,  
02/09/2018 15:46, 2, 64, -7 ,1, 2, N, None, None, ,  
02/09/2018 15:40, 2, 65, -7 ,1, 1, N, None, None, ,  
02/09/2018 15:36, 2, 66, -7 ,1, 1, N, None, None, ,  
02/09/2018 15:26, 3, 66, -6 ,0, 0, N, None, None, ,  
02/09/2018 15:25, 3, 65, -6 ,0, 0, N, None, None, ,  
02/09/2018 15:16, 2, 66, -6 ,0, 0, N, None, None, ,  
02/09/2018 15:10, 3, 62, -7 ,0, 0, N, None, None, ,  
02/09/2018 15:06, 3, 62, -7 ,0, 0, N, None, None, ,  
02/09/2018 14:56, 4, 60, -7 ,0, 1, N, None, None, ,  
02/09/2018 14:55, 4, 61, -6 ,0, 1, N, None, None, ,  
02/09/2018 14:46, 5, 58, -7 ,0, 1, N, None, None, ,  
02/09/2018 14:40, 4, 62, -6 ,0, 1, N, None, None, ,  
02/09/2018 14:36, 5, 57, -7 ,0, 1, E, None, None, ,  
02/09/2018 14:26, 4, 60, -7 ,1, 1, N, None, None, ,  
02/09/2018 14:25, 3, 61, -7 ,1, 1, N, None, None, ,  
02/09/2018 14:16, 3, 61, -7 ,1, 2, N, None, None, ,  
02/09/2018 14:10, 4, 58, -8 ,1, 1, N, None, None, ,  
02/09/2018 14:06, 4, 57, -8 ,0, 1, N, None, None, ,  
02/09/2018 13:56, 4, 57, -8 ,1, 2, NW, None, None, ,  
02/09/2018 13:55, 4, 57, -8 ,1, 2, NW, None, None, ,  
02/09/2018 13:46, 5, 52, -9 ,0, 1, W, None, None, ,  
02/09/2018 13:40, 4, 57, -8 ,0, 2, S, None, None, ,  
02/09/2018 13:36, 2, 58, -9 ,1, 2, S, None, None, ,  
02/09/2018 13:26, 2, 59, -9 ,2, 4, S, None, None, ,  
02/09/2018 13:25, 2, 60, -9 ,2, 4, S, None, None, ,  
02/09/2018 13:16, 1, 58, -10 ,3, 4, S, None, None, ,  
02/09/2018 13:10, 1, 58, -10 ,3, 4, S, None, None, ,  
02/09/2018 13:06, 2, 55, -10 ,3, 4, S, None, None, ,  
02/09/2018 12:56, 4, 55, -9 ,3, 4, S, None, None, ,  
02/09/2018 12:55, 4, 55, -9 ,2, 4, S, None, None, ,  
02/09/2018 12:46, 2, 57, -10 ,3, 4, S, None, None, ,  
02/09/2018 12:40, 2, 57, -9 ,4, 4, S, None, None, ,  
02/09/2018 12:36, 2, 59, -9 ,4, 4, S, None, None, ,  
02/09/2018 12:26, 2, 58, -10 ,4, 4, S, None, None, ,  
02/09/2018 12:25, 2, 57, -10 ,4, 4, S, None, None, ,  
02/09/2018 12:16, 1, 59, -10 ,4, 4, S, None, None, ,  
02/09/2018 12:10, 0, 62, -10 ,2, 3, S, None, None, ,  
02/09/2018 12:06, -1, 58, -12 ,2, 2, S, None, None, ,  
02/09/2018 11:56, 1, 61, -9 ,1, 1, S, None, None, ,  
02/09/2018 11:55, 1, 61, -9 ,1, 1, S, None, None, ,  
02/09/2018 11:46, 1, 61, -9 ,1, 1, S, None, None, ,  
02/09/2018 11:40, -2, 64, -11 ,1, 2, S, None, None, ,  
02/09/2018 11:36, -2, 64, -11 ,1, 2, S, None, None, ,  
02/09/2018 11:25, -4, 69, -12 ,4, 6, S, None, None, ,  
02/09/2018 11:25, -4, 69, -12 ,4, 6, S, None, None, ,  
02/09/2018 11:15, -4, 66, -13 ,5, 6, SE, None, None, ,  
02/09/2018 11:10, -4, 67, -12 ,4, 6, S, None, None, ,  
02/09/2018 11:05, -5, 67, -13 ,4, 7, SE, None, None, ,  
02/09/2018 10:55, -5, 68, -13 ,7, 7, SE, None, None, ,  
02/09/2018 10:55, -5, 68, -13 ,7, 7, SE, None, None, ,  
02/09/2018 10:45, -6, 70, -14 ,4, 7, S, None, None, ,  
02/09/2018 10:40, -7, 71, -14 ,5, 9, S, None, None, ,  
02/09/2018 10:35, -7, 72, -14 ,7, 9, S, None, None, ,  
02/09/2018 10:25, -8, 73, -15 ,8, 9, S, None, None, ,  
02/09/2018 10:25, -8, 73, -15 ,8, 9, S, None, None, ,  
02/09/2018 10:15, -8, 74, -14 ,6, 7, S, None, None, ,  
02/09/2018 10:10, -9, 74, -14 ,7, 7, S, None, None, ,  
02/09/2018 10:05, -9, 75, -14 ,6, 7, S, None, None, ,  
02/09/2018 09:55, -10, 75, -16 ,7, 7, S, None, None, ,  
02/09/2018 09:55, -10, 75, -16 ,7, 7, S, None, None, ,  
02/09/2018 09:45, -10, 75, -16 ,6, 7, S, None, None, ,  
02/09/2018 09:40, -10, 76, -16 ,7, 7, S, None, None, ,  
02/09/2018 09:35, -10, 76, -16 ,4, 6, S, None, None, ,  
02/09/2018 09:25, -11, 76, -17 ,6, 6, S, None, None, ,  
02/09/2018 09:25, -12, 75, -17 ,6, 6, S, None, None, ,  
02/09/2018 09:15, -11, 76, -16 ,6, 7, S, None, None, ,  
02/09/2018 09:10, -11, 77, -16 ,4, 7, S, None, None, ,  
02/09/2018 09:05, -12, 76, -17 ,5, 7, S, None, None, ,  
02/09/2018 08:55, -13, 76, -19 ,6, 7, S, None, None, ,  
02/09/2018 08:55, -13, 76, -19 ,6, 7, S, None, None, ,  
02/09/2018 08:45, -14, 76, -19 ,6, 7, S, None, None, ,  
02/09/2018 08:40, -14, 75, -20 ,6, 7, S, None, None, ,  
02/09/2018 08:35, -14, 75, -20 ,6, 8, S, None, None, ,  
02/09/2018 08:25, -13, 76, -18 ,7, 7, S, None, None, ,  
02/09/2018 08:24, -13, 76, -18 ,7, 7, S, None, None, ,  
02/09/2018 08:15, -14, 78, -19 ,7, 7, S, None, None, ,  
02/09/2018 08:09, -14, 77, -20 ,6, 7, S, None, None, ,  
02/09/2018 08:05, -15, 76, -20 ,6, 8, SE, None, None, ,  
02/09/2018 07:55, -14, 78, -19 ,7, 8, S, None, None, ,  
02/09/2018 07:54, -14, 77, -19 ,7, 8, S, None, None, ,  
02/09/2018 07:45, -13, 79, -18 ,8, 9, S, None, None, ,  
02/09/2018 07:39, -16, 76, -22 ,8, 9, S, None, None, ,  
02/09/2018 07:35, -16, 76, -21 ,6, 9, SE, None, None, ,  
02/09/2018 07:25, -15, 77, -20 ,7, 9, SE, None, None, ,  
02/09/2018 07:24, -15, 78, -20 ,7, 9, SE, None, None, ,  
02/09/2018 07:15, -16, 76, -22 ,7, 9, S, None, None, ,  
02/09/2018 07:10, -16, 77, -21 ,9, 9, S, None, None, ,  
02/09/2018 07:04, -15, 75, -21 ,8, 9, S, None, None, ,  
02/09/2018 06:56, -14, 77, -19 ,7, 10, S, None, None, ,  
02/09/2018 06:54, -13, 78, -18 ,7, 10, S, None, None, ,  
02/09/2018 06:44, -13, 79, -18 ,7, 8, SE, None, None, ,  
02/09/2018 06:41, -15, 77, -20 ,7, 9, S, None, None, ,  
02/09/2018 06:34, -16, 78, -21 ,7, 9, S, None, None, ,  
02/09/2018 06:26, -16, 76, -21 ,9, 10, S, None, None, ,  
02/09/2018 06:24, -17, 75, -22 ,9, 11, S, None, None, ,  
02/09/2018 06:14, -15, 77, -20 ,9, 10, S, None, None, ,  
02/09/2018 06:11, -14, 78, -19 ,9, 9, S, None, None, ,  
02/09/2018 06:04, -14, 78, -19 ,9, 9, S, None, None, ,  
02/09/2018 05:56, -14, 78, -19 ,7, 10, S, None, None, ,  
02/09/2018 05:54, -14, 78, -19 ,9, 10, S, None, None, ,  
02/09/2018 05:44, -12, 77, -18 ,7, 8, S, None, None, ,  
02/09/2018 05:41, -12, 78, -16 ,7, 7, SE, None, None, ,  
02/09/2018 05:34, -10, 80, -15 ,6, 7, S, None, None, ,  
02/09/2018 05:26, -12, 78, -17 ,7, 7, S, None, None, ,  
02/09/2018 05:24, -12, 77, -18 ,7, 7, S, None, None, ,  
02/09/2018 05:14, -12, 77, -17 ,7, 9, S, None, None, ,  
02/09/2018 05:11, -11, 78, -16 ,7, 7, S, None, None, ,  
02/09/2018 05:04, -10, 80, -14 ,5, 7, S, None, None, ,  
02/09/2018 04:56, -12, 77, -17 ,6, 7, SE, None, None, ,  
02/09/2018 04:54, -12, 76, -17 ,6, 7, S, None, None, ,  
02/09/2018 04:44, -11, 79, -16 ,5, 6, SE, None, None, ,  
02/09/2018 04:41, -12, 75, -18 ,6, 6, SE, None, None, ,  
02/09/2018 04:34, -9, 77, -14 ,3, 4, SE, None, None, ,  
02/09/2018 04:26, -8, 78, -13 ,4, 4, S, None, None, ,  
02/09/2018 04:24, -8, 78, -13 ,4, 4, SE, None, None, ,  
02/09/2018 04:14, -8, 78, -13 ,3, 4, SE, None, None, ,  
02/09/2018 04:11, -8, 78, -13 ,3, 4, SE, None, None, ,  
02/09/2018 04:04, -8, 78, -13 ,3, 4, SE, None, None, ,  
02/09/2018 03:56, -7, 79, -12 ,3, 4, SE, None, None, ,  
02/09/2018 03:54, -7, 79, -12 ,3, 4, SE, Yes, Heavy, ,  
02/09/2018 03:44, -8, 78, -12 ,1, 2, SE, None, None, ,  
02/09/2018 03:41, -7, 79, -12 ,0, 1, S, Yes, Heavy, ,  
02/09/2018 03:34, -7, 75, -13 ,1, 1, SE, None, None, ,  
02/09/2018 03:26, -5, 79, -10 ,1, 2, E, None, None, ,  
02/09/2018 03:24, -5, 79, -10 ,1, 2, SE, None, None, ,  
02/09/2018 03:14, -5, 79, -10 ,1, 2, SE, Yes, Heavy, ,  
02/09/2018 03:11, -6, 79, -10 ,1, 2, SE, Yes, Heavy, ,  
02/09/2018 03:04, -6, 78, -10 ,2, 2, SE, None, None, ,  
02/09/2018 02:56, -5, 79, -10 ,2, 2, S, None, None, ,  
02/09/2018 02:54, -5, 79, -10 ,1, 2, SE, None, None, ,  
02/09/2018 02:44, -5, 79, -10 ,1, 1, SE, Yes, Heavy, ,  
02/09/2018 02:41, -5, 79, -10 ,1, 2, SE, Yes, Heavy, ,  
02/09/2018 02:34, -5, 79, -10 ,1, 2, SE, Yes, Heavy, ,  
02/09/2018 02:26, -5, 79, -10 ,1, 2, E, Yes, Heavy, ,  
02/09/2018 02:24, -5, 79, -10 ,1, 1, SE, Yes, Heavy, ,  
02/09/2018 02:14, -5, 79, -10 ,1, 1, E, Yes, Heavy, ,  
02/09/2018 02:11, -5, 79, -10 ,1, 1, SE, Yes, Heavy, ,  
02/09/2018 02:04, -5, 79, -10 ,1, 2, SE, Yes, Heavy, ,  
02/09/2018 01:56, -5, 79, -10 ,2, 3, SE, Yes, Heavy, ,  
02/09/2018 01:53, -5, 79, -10 ,3, 3, SE, Yes, Heavy, ,  
02/09/2018 01:43, -5, 80, -9 ,1, 2, SE, Yes, Heavy, ,  
02/09/2018 01:41, -5, 80, -9 ,1, 3, SE, Yes, Heavy, ,  
02/09/2018 01:33, -5, 80, -9 ,2, 3, SE, Yes, Heavy, ,  
02/09/2018 01:26, -5, 80, -9 ,1, 2, E, Yes, Heavy, ,  
02/09/2018 01:23, -5, 80, -9 ,1, 2, SE, Yes, Heavy, ,  
02/09/2018 01:13, -5, 80, -9 ,1, 3, SE, Yes, Heavy, ,  
02/09/2018 01:11, -5, 80, -9 ,2, 3, SE, Yes, Heavy, ,  
02/09/2018 01:03, -5, 80, -9 ,1, 2, SE, Yes, Heavy, ,  
02/09/2018 00:56, -5, 80, -9 ,1, 1, E, Yes, Heavy, ,  
02/09/2018 00:53, -5, 80, -9 ,1, 1, SE, Yes, Heavy, ,  
02/09/2018 00:43, -5, 80, -9 ,0, 2, E, Yes, Heavy, ,  
02/09/2018 00:41, -5, 80, -9 ,0, 2, E, Yes, Heavy, ,  
02/09/2018 00:33, -5, 80, -9 ,1, 1, E, Yes, Heavy, ,  
02/09/2018 00:26, -5, 80, -9 ,1, 2, SE, Yes, Heavy, ,  
02/09/2018 00:23, -5, 80, -9 ,1, 2, SE, Yes, Heavy, ,  
02/09/2018 00:13, -5, 80, -9 ,3, 6, E, Yes, Heavy, ,  
02/09/2018 00:11, -5, 80, -9 ,4, 6, E, Yes, Heavy, ,  
02/09/2018 00:03, -5, 80, -9 ,4, 4, E, Yes, Heavy, ,  
02/08/2018 23:56, -5, 80, -9 ,2, 2, SE, Yes, Heavy, ,  
02/08/2018 23:53, -5, 80, -9 ,2, 2, SE, Yes, Heavy, ,  
02/08/2018 23:43, -5, 80, -9 ,0, 1, E, Yes, Heavy, ,  
02/08/2018 23:41, -5, 80, -9 ,0, 1, E, Yes, Heavy, ,  
02/08/2018 23:33, -5, 80, -9 ,1, 2, E, Yes, Heavy, ,  
02/08/2018 23:23, -5, 80, -9 ,2, 2, NE, Yes, Heavy, ,  
02/08/2018 23:13, -5, 80, -9 ,2, 3, NE, Yes, Heavy, ,  
02/08/2018 23:03, -5, 81, -9 ,2, 2, NE, Yes, Heavy, ,  
02/08/2018 22:56, -5, 81, -9 ,1, 4, NE, Yes, Heavy, ,  
02/08/2018 22:53, -5, 81, -9 ,2, 4, N, Yes, Heavy, ,  
02/08/2018 22:43, -5, 81, -9 ,2, 6, N, Yes, Heavy, ,  
02/08/2018 22:41, -5, 81, -9 ,3, 7, N, Yes, Heavy, ,  
02/08/2018 22:33, -5, 81, -9 ,6, 7, NW, Yes, Heavy, ,  
02/08/2018 22:26, -4, 81, -9 ,6, 6, NW, Yes, Heavy, ,  
02/08/2018 22:23, -4, 81, -9 ,4, 6, NW, Yes, Heavy, ,  
02/08/2018 22:13, -4, 81, -9 ,6, 6, N, Yes, Heavy, ,  
02/08/2018 22:11, -4, 81, -9 ,6, 6, N, Yes, Heavy, ,  
02/08/2018 22:03, -4, 81, -8 ,6, 7, NW, None, None, ,  
02/08/2018 21:56, -4, 81, -8 ,4, 6, N, Yes, Heavy, ,  
02/08/2018 21:53, -4, 81, -8 ,4, 6, N, Yes, Heavy, ,  
02/08/2018 21:43, -4, 81, -8 ,4, 6, N, Yes, Heavy, ,  
02/08/2018 21:41, -4, 81, -8 ,4, 6, N, Yes, Heavy, ,  
02/08/2018 21:33, -3, 81, -8 ,4, 6, N, Yes, Heavy, ,  
02/08/2018 21:26, -3, 81, -8 ,4, 7, NW, Yes, Heavy, ,  
02/08/2018 21:22, -3, 81, -8 ,6, 7, NW, Yes, Heavy, ,  
02/08/2018 21:12, -3, 81, -7 ,7, 9, N, Yes, Heavy, ,  
02/08/2018 21:11, -3, 81, -7 ,6, 6, N, Yes, Heavy, ,  
02/08/2018 21:02, -3, 81, -7 ,3, 6, N, Yes, Heavy, ,  
02/08/2018 20:56, -3, 82, -7 ,5, 6, N, Yes, Heavy, ,  
02/08/2018 20:52, -3, 82, -7 ,4, 5, N, Yes, Heavy, ,  
02/08/2018 20:42, -3, 82, -7 ,2, 4, N, Yes, Heavy, ,  
02/08/2018 20:41, -3, 82, -7 ,3, 4, N, Yes, Heavy, ,  
02/08/2018 20:32, -3, 81, -7 ,3, 5, NW, Yes, Heavy, ,  
02/08/2018 20:26, -3, 81, -7 ,4, 5, NW, Yes, Heavy, ,  
02/08/2018 20:22, -3, 80, -7 ,4, 4, NW, Yes, Heavy, ,  
02/08/2018 20:12, -3, 79, -7 ,3, 4, NW, Yes, Heavy, ,  
02/08/2018 20:11, -3, 79, -8 ,3, 4, NW, Yes, Heavy, ,  
02/08/2018 20:02, -3, 78, -8 ,2, 4, W, None, None, ,  
02/08/2018 19:56, -2, 79, -7 ,3, 4, W, None, None, ,  
02/08/2018 19:52, -2, 79, -7 ,3, 6, W, None, None, ,  
02/08/2018 19:42, -2, 79, -7 ,4, 7, NW, None, None, ,  
02/08/2018 19:41, -2, 79, -7 ,4, 7, NW, None, None, ,  
02/08/2018 19:32, -2, 78, -8 ,6, 7, W, None, None, ,  
02/08/2018 19:26, -2, 77, -8 ,6, 7, W, None, None, ,  
02/08/2018 19:22, -2, 78, -7 ,6, 7, W, Yes, Heavy, ,  
02/08/2018 19:12, -2, 79, -7 ,6, 6, W, None, None, ,  
02/08/2018 19:11, -2, 79, -7 ,4, 6, W, None, None, ,  
02/08/2018 19:02, -2, 79, -7 ,6, 8, W, None, None, ,  
02/08/2018 18:55, -2, 80, -7 ,6, 8, W, None, None, ,  
02/08/2018 18:52, -2, 80, -7 ,6, 7, W, None, None, ,  
02/08/2018 18:42, -3, 81, -7 ,4, 6, W, None, None, ,  
02/08/2018 18:41, -3, 81, -7 ,4, 7, W, None, None, ,  
02/08/2018 18:32, -2, 81, -7 ,6, 7, W, Yes, Heavy, ,  
02/08/2018 18:24, -3, 81, -7 ,6, 7, W, Yes, Heavy, ,  
02/08/2018 18:22, -3, 81, -7 ,6, 7, W, None, None, ,  
02/08/2018 18:12, -3, 80, -7 ,6, 7, W, None, None, ,  
Change End Date:

Copyright © 1998-2015 Vaisala, Inc.
All Rights Reserved
Send comments about the data to:
SCAN Web ® is a registered trademark of Vaisala, Inc.
SCAN Web Version 6.0